createdAt,value
2022-12-18T00:00:46.581Z,10.70
2022-12-18T00:03:16.072Z,12.43
2022-12-18T00:05:50.857Z,12.88
2022-12-18T00:08:19.249Z,13.30
2022-12-18T00:10:47.692Z,12.02
2022-12-18T00:13:16.307Z,11.43
2022-12-18T00:15:44.601Z,9.40
2022-12-18T00:18:13.824Z,11.02
2022-12-18T00:23:13.263Z,11.80
2022-12-18T00:25:41.295Z,11.77
2022-12-18T00:28:08.429Z,9.73
2022-12-18T00:30:41.526Z,9.02
2022-12-18T00:33:11.427Z,9.77
2022-12-18T00:35:43.190Z,8.20
2022-12-18T00:38:18.145Z,10.60
2022-12-18T00:40:45.489Z,10.18
2022-12-18T00:43:13.749Z,11.43
2022-12-18T00:45:41.852Z,8.60
2022-12-18T00:48:11.391Z,8.48
2022-12-18T00:50:39.792Z,10.10
2022-12-18T00:53:07.668Z,9.15
2022-12-18T00:55:34.560Z,9.25
2022-12-18T00:58:07.702Z,9.63
2022-12-18T01:00:36.493Z,13.70
2022-12-18T01:03:04.232Z,13.57
2022-12-18T01:05:31.636Z,15.63
2022-12-18T01:08:00.474Z,14.95
2022-12-18T01:10:28.325Z,16.33
2022-12-18T01:12:58.129Z,14.77
2022-12-18T01:15:25.578Z,11.32
2022-12-18T01:17:54.479Z,12.82
2022-12-18T01:20:23.326Z,15.80
2022-12-18T01:22:50.213Z,14.45
2022-12-18T01:25:17.748Z,15.93
2022-12-18T01:27:49.094Z,14.18
2022-12-18T01:30:16.353Z,10.68
2022-12-18T01:32:44.404Z,16.00
2022-12-18T01:35:16.788Z,11.85
2022-12-18T01:37:44.225Z,13.98
2022-12-18T01:40:13.064Z,10.90
2022-12-18T01:42:43.277Z,13.32
2022-12-18T01:45:14.938Z,11.05
2022-12-18T01:47:50.906Z,13.55
2022-12-18T01:50:31.324Z,11.38
2022-12-18T01:53:05.621Z,15.70
2022-12-18T01:55:40.857Z,11.23
2022-12-18T01:58:07.862Z,13.20
2022-12-18T02:00:35.661Z,15.25
2022-12-18T02:03:02.801Z,10.65
2022-12-18T02:05:46.058Z,12.00
2022-12-18T02:08:40.510Z,11.07
2022-12-18T02:11:20.167Z,11.07
2022-12-18T02:14:11.985Z,10.00
2022-12-18T02:17:07.827Z,10.32
2022-12-18T02:19:44.344Z,9.45
2022-12-18T02:22:46.776Z,10.75
2022-12-18T02:26:28.524Z,9.43
2022-12-18T02:29:04.562Z,10.88
2022-12-18T02:31:41.142Z,11.98
2022-12-18T02:34:10.071Z,11.07
2022-12-18T02:36:41.874Z,9.93
2022-12-18T02:39:13.211Z,9.30
2022-12-18T02:41:49.359Z,12.13
2022-12-18T02:44:16.399Z,8.90
2022-12-18T02:46:48.731Z,12.13
2022-12-18T02:49:43.440Z,9.98
2022-12-18T02:52:56.787Z,10.30
2022-12-18T02:56:01.239Z,11.43
2022-12-18T02:58:50.894Z,12.40
2022-12-18T03:01:42.033Z,15.90
2022-12-18T03:04:39.046Z,11.90
2022-12-18T03:07:14.882Z,14.00
2022-12-18T03:09:50.447Z,11.60
2022-12-18T03:12:31.303Z,15.55
2022-12-18T03:15:17.938Z,13.38
2022-12-18T03:17:53.605Z,13.05
2022-12-18T03:20:25.507Z,13.65
2022-12-18T03:23:00.057Z,13.70
2022-12-18T03:25:29.047Z,14.18
2022-12-18T03:28:00.226Z,15.05
2022-12-18T03:30:30.885Z,14.98
2022-12-18T03:35:50.671Z,11.60
2022-12-18T03:38:19.829Z,14.57
2022-12-18T03:41:10.961Z,17.52
2022-12-18T03:44:03.290Z,13.20
2022-12-18T03:46:57.314Z,11.13
2022-12-18T03:49:33.045Z,15.70
2022-12-18T03:52:47.731Z,10.85
2022-12-18T03:55:16.031Z,12.07
2022-12-18T03:57:48.679Z,13.85
2022-12-18T04:00:26.299Z,13.25
2022-12-18T04:03:05.862Z,13.80
2022-12-18T04:05:41.523Z,13.75
2022-12-18T04:08:11.232Z,14.82
2022-12-18T04:10:43.715Z,16.05
2022-12-18T04:13:11.363Z,22.55
2022-12-18T04:15:40.021Z,22.88
2022-12-18T04:18:10.725Z,25.50
2022-12-18T04:20:41.456Z,21.27
2022-12-18T04:23:09.199Z,27.63
2022-12-18T04:25:38.288Z,17.13
2022-12-18T04:28:08.853Z,15.88
2022-12-18T04:30:38.049Z,13.90
2022-12-18T04:33:13.856Z,16.77
2022-12-18T04:35:41.995Z,14.88
2022-12-18T04:38:09.518Z,16.17
2022-12-18T04:40:39.456Z,14.07
2022-12-18T04:43:15.164Z,12.38
2022-12-18T04:45:42.166Z,14.98
2022-12-18T04:48:09.963Z,10.57
2022-12-18T04:50:37.444Z,12.10
2022-12-18T04:53:04.452Z,11.70
2022-12-18T04:55:31.349Z,10.88
2022-12-18T04:57:58.244Z,11.27
2022-12-18T05:00:26.599Z,17.75
2022-12-18T05:02:55.091Z,9.85
2022-12-18T05:05:22.728Z,12.85
2022-12-18T05:07:49.629Z,10.38
2022-12-18T05:10:16.708Z,10.00
2022-12-18T05:13:03.001Z,10.35
2022-12-18T05:15:33.978Z,10.43
2022-12-18T05:18:09.040Z,10.20
2022-12-18T05:20:36.277Z,12.93
2022-12-18T05:23:03.200Z,14.40
2022-12-18T05:25:31.908Z,10.85
2022-12-18T05:27:59.048Z,10.73
2022-12-18T05:30:27.034Z,11.52
2022-12-18T05:32:54.584Z,12.30
2022-12-18T05:35:22.073Z,13.55
2022-12-18T05:37:49.094Z,10.57
2022-12-18T05:40:17.574Z,12.57
2022-12-18T05:42:45.216Z,10.18
2022-12-18T05:45:13.685Z,9.60
2022-12-18T05:47:41.236Z,13.52
2022-12-18T05:50:11.287Z,13.75
2022-12-18T05:52:41.749Z,11.95
2022-12-18T05:55:09.171Z,13.85
2022-12-18T05:57:36.015Z,10.23
2022-12-18T06:00:03.879Z,9.50
2022-12-18T06:02:40.290Z,12.23
2022-12-18T06:05:08.060Z,13.27
2022-12-18T06:07:35.052Z,17.00
2022-12-18T06:10:02.080Z,11.75
2022-12-18T06:12:29.093Z,10.43
2022-12-18T06:14:59.195Z,11.15
2022-12-18T06:17:33.591Z,9.77
2022-12-18T06:20:02.414Z,11.15
2022-12-18T06:22:31.373Z,12.25
2022-12-18T06:24:58.311Z,12.15
2022-12-18T06:27:25.664Z,14.82
2022-12-18T06:29:52.720Z,12.95
2022-12-18T06:32:20.484Z,12.68
2022-12-18T06:34:47.397Z,13.85
2022-12-18T06:37:14.468Z,12.23
2022-12-18T06:39:41.367Z,16.60
2022-12-18T06:42:08.518Z,13.45
2022-12-18T06:44:35.444Z,14.90
2022-12-18T06:47:04.053Z,14.20
2022-12-18T06:49:31.118Z,13.25
2022-12-18T06:51:58.034Z,15.50
2022-12-18T06:54:30.794Z,12.88
2022-12-18T06:57:00.536Z,13.85
2022-12-18T06:59:28.850Z,12.65
2022-12-18T07:01:56.748Z,11.85
2022-12-18T07:04:30.040Z,14.68
2022-12-18T07:06:57.069Z,13.98
2022-12-18T07:09:24.764Z,12.80
2022-12-18T07:11:52.868Z,14.55
2022-12-18T07:14:19.834Z,17.48
2022-12-18T07:16:47.079Z,14.70
2022-12-18T07:19:15.585Z,13.52
2022-12-18T07:21:42.733Z,14.52
2022-12-18T07:24:09.740Z,13.70
2022-12-18T07:26:36.659Z,13.73
2022-12-18T07:29:03.708Z,14.68
2022-12-18T07:31:33.255Z,12.60
2022-12-18T07:34:00.363Z,19.02
2022-12-18T07:36:27.389Z,16.88
2022-12-18T07:38:54.340Z,15.88
2022-12-18T07:41:21.526Z,15.73
2022-12-18T07:43:48.944Z,13.18
2022-12-18T07:46:23.912Z,17.83
2022-12-18T07:48:50.850Z,15.02
2022-12-18T07:51:19.091Z,14.60
2022-12-18T07:53:46.394Z,15.55
2022-12-18T07:56:27.184Z,14.77
2022-12-18T07:58:55.313Z,16.55
2022-12-18T08:01:22.499Z,13.10
2022-12-18T08:03:51.595Z,16.42
2022-12-18T08:06:21.279Z,13.80
2022-12-18T08:08:49.997Z,12.98
2022-12-18T08:11:20.066Z,28.00
2022-12-18T08:13:48.420Z,19.17
2022-12-18T08:16:16.949Z,21.63
2022-12-18T08:18:44.017Z,18.92
2022-12-18T08:21:11.324Z,17.65
2022-12-18T08:23:51.330Z,19.50
2022-12-18T08:26:21.226Z,24.83
2022-12-18T08:28:54.209Z,20.05
2022-12-18T08:31:22.618Z,23.10
2022-12-18T08:33:53.317Z,23.70
2022-12-18T08:36:21.719Z,28.00
2022-12-18T08:38:48.869Z,23.02
2022-12-18T08:44:34.053Z,23.10
2022-12-18T08:47:27.326Z,24.52
2022-12-18T08:54:12.920Z,30.40
2022-12-18T09:00:08.868Z,18.00
2022-12-18T09:02:39.920Z,20.42
2022-12-18T09:05:11.029Z,22.83
2022-12-18T09:07:38.497Z,25.30
2022-12-18T09:10:07.341Z,24.75
2022-12-18T09:12:34.544Z,22.40
2022-12-18T09:15:01.968Z,23.73
2022-12-18T09:17:30.865Z,25.83
2022-12-18T09:19:57.751Z,37.30
2022-12-18T09:22:24.910Z,37.58
2022-12-18T09:24:52.263Z,22.70
2022-12-18T09:27:19.307Z,18.92
2022-12-18T09:29:46.370Z,18.65
2022-12-18T09:32:17.591Z,19.83
2022-12-18T09:34:47.443Z,17.55
2022-12-18T09:37:14.464Z,16.45
2022-12-18T09:39:54.892Z,20.80
2022-12-18T09:42:28.138Z,18.10
2022-12-18T09:47:44.153Z,14.98
2022-12-18T09:50:25.670Z,18.42
2022-12-18T09:52:59.101Z,15.90
2022-12-18T09:55:37.235Z,18.27
2022-12-18T09:58:10.886Z,21.67
2022-12-18T10:00:37.856Z,17.77
2022-12-18T10:03:13.691Z,20.40
2022-12-18T10:06:18.315Z,20.98
2022-12-18T10:09:10.853Z,17.70
2022-12-18T10:12:10.469Z,16.67
2022-12-18T10:15:03.220Z,22.65
2022-12-18T10:17:59.411Z,16.20
2022-12-18T10:20:46.386Z,18.92
2022-12-18T10:23:34.605Z,16.73
2022-12-18T10:26:07.743Z,18.10
2022-12-18T10:28:37.997Z,19.15
2022-12-18T10:31:08.524Z,17.27
2022-12-18T10:33:35.858Z,14.75
2022-12-18T10:36:03.917Z,17.23
2022-12-18T10:38:33.025Z,16.98
2022-12-18T10:41:05.974Z,17.00
2022-12-18T10:43:39.979Z,18.60
2022-12-18T10:46:15.899Z,15.02
2022-12-18T10:48:49.269Z,16.83
2022-12-18T10:51:25.423Z,16.90
2022-12-18T10:54:06.479Z,14.70
2022-12-18T10:56:36.861Z,12.80
2022-12-18T10:59:11.687Z,15.10
2022-12-18T11:01:59.168Z,16.95
2022-12-18T11:04:28.873Z,17.27
2022-12-18T11:07:06.152Z,18.23
2022-12-18T11:12:30.631Z,16.08
2022-12-18T11:15:10.884Z,18.40
2022-12-18T11:18:06.804Z,17.27
2022-12-18T11:20:59.666Z,20.45
2022-12-18T11:23:36.438Z,15.23
2022-12-18T11:57:37.217Z,14.10
2022-12-18T12:00:41.087Z,15.05
2022-12-18T12:06:35.764Z,15.65
2022-12-18T12:09:18.738Z,15.68
2022-12-18T12:12:30.782Z,15.65
2022-12-18T12:16:03.913Z,15.18
2022-12-18T12:22:11.163Z,14.68
2022-12-18T12:25:49.209Z,17.83
2022-12-18T12:38:33.830Z,18.85
2022-12-18T12:41:32.434Z,18.00
2022-12-18T12:48:15.346Z,17.27
2022-12-18T12:53:37.461Z,15.63
2022-12-18T12:56:39.983Z,18.92
2022-12-18T13:03:17.665Z,18.45
2022-12-18T13:06:04.684Z,19.70
2022-12-18T19:28:37.062Z,31.15
2022-12-18T19:31:26.145Z,31.45
2022-12-18T19:34:38.770Z,31.42
2022-12-18T21:02:28.109Z,34.88
2022-12-18T21:13:52.966Z,31.25
2022-12-18T21:16:57.591Z,31.58
2022-12-18T21:19:54.622Z,29.45
2022-12-18T22:41:45.867Z,28.60
2022-12-18T23:05:09.710Z,38.08
2022-12-18T23:14:48.917Z,36.35
2022-12-18T23:17:59.374Z,43.15
2022-12-18T23:23:37.276Z,31.92
2022-12-18T23:26:30.251Z,37.25
2022-12-18T23:29:14.794Z,45.97
2022-12-18T23:34:22.360Z,37.13
2022-12-18T23:37:07.346Z,32.45
2022-12-18T23:39:37.616Z,31.90
2022-12-18T23:53:04.848Z,38.35
